createdAt,value
2023-02-18T00:00:06.305Z,21.4
2023-02-18T00:01:08.844Z,21.7
2023-02-18T00:02:11.463Z,21.5
2023-02-18T00:03:13.872Z,21.4
2023-02-18T00:04:16.347Z,21.6
2023-02-18T00:05:18.558Z,21.6
2023-02-18T00:06:21.133Z,21.5
2023-02-18T00:07:23.651Z,21.5
2023-02-18T00:08:26.144Z,21.4
2023-02-18T00:09:28.663Z,21.4
2023-02-18T00:10:31.166Z,21.6
2023-02-18T00:11:33.693Z,21.4
2023-02-18T00:12:36.181Z,21.5
2023-02-18T00:13:38.719Z,21.4
2023-02-18T00:14:41.340Z,21.5
2023-02-18T00:15:43.869Z,21.6
2023-02-18T00:16:46.571Z,21.6
2023-02-18T00:17:49.074Z,21.6
2023-02-18T00:18:51.306Z,21.6
2023-02-18T00:19:53.811Z,21.6
2023-02-18T00:20:56.322Z,21.6
2023-02-18T00:21:58.806Z,21.4
2023-02-18T00:23:01.317Z,21.7
2023-02-18T00:24:03.570Z,21.7
2023-02-18T00:25:06.072Z,21.4
2023-02-18T00:26:08.516Z,21.4
2023-02-18T00:27:12.751Z,21.7
2023-02-18T00:28:15.262Z,21.5
2023-02-18T00:29:17.759Z,21.5
2023-02-18T00:30:20.456Z,21.6
2023-02-18T00:31:23.448Z,21.4
2023-02-18T00:32:26.663Z,21.4
2023-02-18T00:33:29.166Z,21.4
2023-02-18T00:34:31.672Z,21.4
2023-02-18T00:35:33.899Z,21.5
2023-02-18T00:36:36.422Z,21.8
2023-02-18T00:37:38.956Z,21.5
2023-02-18T00:38:41.193Z,21.6
2023-02-18T00:39:43.409Z,21.6
2023-02-18T00:40:45.623Z,21.8
2023-02-18T00:41:48.103Z,21.7
2023-02-18T00:42:50.337Z,21.6
2023-02-18T00:43:52.847Z,21.8
2023-02-18T00:44:55.378Z,21.8
2023-02-18T00:45:58.003Z,21.6
2023-02-18T00:47:00.850Z,21.8
2023-02-18T00:48:02.803Z,21.6
2023-02-18T00:49:05.018Z,21.6
2023-02-18T00:50:07.297Z,21.5
2023-02-18T00:51:09.823Z,21.6
2023-02-18T00:52:12.339Z,21.7
2023-02-18T00:53:14.913Z,21.7
2023-02-18T00:54:17.422Z,21.8
2023-02-18T00:55:19.358Z,21.8
2023-02-18T00:56:21.862Z,21.7
2023-02-18T00:57:24.370Z,21.7
2023-02-18T00:58:26.913Z,21.6
2023-02-18T00:59:29.401Z,21.7
2023-02-18T01:00:31.606Z,21.8
2023-02-18T01:01:34.242Z,21.7
2023-02-18T01:02:37.114Z,21.6
2023-02-18T01:03:39.378Z,21.7
2023-02-18T01:04:41.994Z,21.6
2023-02-18T01:05:44.487Z,21.8
2023-02-18T01:06:47.004Z,21.8
2023-02-18T01:07:49.228Z,21.7
2023-02-18T01:08:51.469Z,21.7
2023-02-18T01:09:53.987Z,21.9
2023-02-18T01:10:56.488Z,21.7
2023-02-18T01:11:58.989Z,21.7
2023-02-18T01:13:01.494Z,21.7
2023-02-18T01:14:04.008Z,21.8
2023-02-18T01:15:06.284Z,21.8
2023-02-18T01:16:09.139Z,21.8
2023-02-18T01:17:13.541Z,21.8
2023-02-18T01:18:16.039Z,21.8
2023-02-18T01:19:18.278Z,21.9
2023-02-18T01:20:20.787Z,21.7
2023-02-18T01:21:23.339Z,21.6
2023-02-18T01:22:25.545Z,21.7
2023-02-18T01:23:28.059Z,21.5
2023-02-18T01:24:30.556Z,21.5
2023-02-18T01:25:33.101Z,21.7
2023-02-18T01:26:35.616Z,21.7
2023-02-18T01:27:38.100Z,21.9
2023-02-18T01:28:40.319Z,21.6
2023-02-18T01:29:43.054Z,21.9
2023-02-18T01:30:45.560Z,21.6
2023-02-18T01:31:48.215Z,21.9
2023-02-18T01:32:51.589Z,21.8
2023-02-18T01:33:53.796Z,21.8
2023-02-18T01:34:56.359Z,22
2023-02-18T01:35:58.841Z,21.7
2023-02-18T01:37:01.333Z,21.8
2023-02-18T01:38:03.897Z,22
2023-02-18T01:39:06.387Z,21.7
2023-02-18T01:40:08.884Z,22
2023-02-18T01:41:11.362Z,21.8
2023-02-18T01:42:13.617Z,21.8
2023-02-18T01:43:16.170Z,21.7
2023-02-18T01:44:18.671Z,21.7
2023-02-18T01:45:21.187Z,21.7
2023-02-18T01:46:23.446Z,21.7
2023-02-18T01:47:26.156Z,21.9
2023-02-18T01:48:28.837Z,21.8
2023-02-18T01:49:31.079Z,21.8
2023-02-18T01:50:32.993Z,22.1
2023-02-18T01:51:35.311Z,21.8
2023-02-18T01:52:37.546Z,21.7
2023-02-18T01:53:39.785Z,21.7
2023-02-18T01:54:42.283Z,21.8
2023-02-18T01:55:44.514Z,21.9
2023-02-18T01:56:46.750Z,22
2023-02-18T01:57:49.115Z,21.8
2023-02-18T01:58:51.669Z,22
2023-02-18T01:59:54.151Z,21.8
2023-02-18T02:00:56.702Z,21.9
2023-02-18T02:01:59.576Z,21.7
2023-02-18T02:03:02.493Z,21.8
2023-02-18T02:04:05.087Z,21.8
2023-02-18T02:05:07.583Z,21.8
2023-02-18T02:06:09.981Z,21.9
2023-02-18T02:07:12.284Z,21.7
2023-02-18T02:08:14.783Z,21.9
2023-02-18T02:09:17.169Z,21.9
2023-02-18T02:10:19.667Z,22
2023-02-18T02:11:22.254Z,21.8
2023-02-18T02:12:24.784Z,21.7
2023-02-18T02:13:26.998Z,21.9
2023-02-18T02:14:29.213Z,22
2023-02-18T02:15:31.397Z,21.7
2023-02-18T02:16:33.724Z,21.7
2023-02-18T02:17:36.072Z,21.9
2023-02-18T02:18:38.271Z,21.8
2023-02-18T02:19:41.115Z,21.8
2023-02-18T02:20:43.615Z,21.9
2023-02-18T02:21:46.093Z,21.9
2023-02-18T02:22:48.020Z,22
2023-02-18T02:23:50.246Z,21.9
2023-02-18T02:24:52.765Z,22
2023-02-18T02:25:55.312Z,21.8
2023-02-18T02:26:57.805Z,22.1
2023-02-18T02:28:00.314Z,22
2023-02-18T02:29:02.853Z,22
2023-02-18T02:30:05.094Z,21.8
2023-02-18T02:31:07.947Z,22
2023-02-18T02:32:10.904Z,22
2023-02-18T02:33:13.433Z,21.8
2023-02-18T02:34:15.643Z,22
2023-02-18T02:35:18.291Z,22
2023-02-18T02:36:20.806Z,21.9
2023-02-18T02:37:22.767Z,21.8
2023-02-18T02:38:25.256Z,21.9
2023-02-18T02:39:27.768Z,21.9
2023-02-18T02:40:30.275Z,22
2023-02-18T02:41:32.843Z,21.8
2023-02-18T02:42:35.338Z,21.9
2023-02-18T02:43:37.843Z,21.9
2023-02-18T02:44:40.353Z,22.2
2023-02-18T02:45:42.887Z,22
2023-02-18T02:46:45.551Z,22
2023-02-18T02:47:48.078Z,22.1
2023-02-18T02:48:50.579Z,22.1
2023-02-18T02:49:53.072Z,21.9
2023-02-18T02:50:55.664Z,22.1
2023-02-18T02:51:57.899Z,22.1
2023-02-18T02:53:00.411Z,22.1
2023-02-18T02:54:02.916Z,22.2
2023-02-18T02:55:05.148Z,22.1
2023-02-18T02:56:07.905Z,22
2023-02-18T02:57:11.658Z,22
2023-02-18T02:58:14.179Z,22.1
2023-02-18T02:59:16.664Z,21.9
2023-02-18T03:00:19.214Z,22.2
2023-02-18T03:01:21.574Z,22.1
2023-02-18T03:02:24.182Z,22
2023-02-18T03:03:26.701Z,21.9
2023-02-18T03:04:28.944Z,22
2023-02-18T03:05:31.175Z,22
2023-02-18T03:06:33.494Z,22.1
2023-02-18T03:07:36.041Z,22
2023-02-18T03:08:38.538Z,22
2023-02-18T03:09:41.049Z,22.1
2023-02-18T03:10:43.530Z,22
2023-02-18T03:11:45.762Z,22
2023-02-18T03:12:47.984Z,22
2023-02-18T03:13:50.292Z,21.9
2023-02-18T03:14:52.518Z,22.2
2023-02-18T03:15:54.744Z,22.1
2023-02-18T03:16:57.247Z,22.2
2023-02-18T03:17:59.752Z,22.2
2023-02-18T03:19:01.981Z,22.2
2023-02-18T03:20:04.204Z,22.1
2023-02-18T03:21:06.731Z,22.1
2023-02-18T03:22:09.360Z,22.1
2023-02-18T03:23:11.860Z,22.1
2023-02-18T03:24:14.343Z,22.1
2023-02-18T03:25:16.581Z,22.1
2023-02-18T03:26:19.081Z,22
2023-02-18T03:27:21.573Z,22.1
2023-02-18T03:28:23.795Z,22.1
2023-02-18T03:29:26.301Z,22.1
2023-02-18T03:30:28.298Z,22.1
2023-02-18T03:31:30.894Z,22.1
2023-02-18T03:32:33.982Z,22
2023-02-18T03:33:36.493Z,22
2023-02-18T03:34:39.014Z,22.1
2023-02-18T03:35:41.336Z,22
2023-02-18T03:36:43.862Z,22.1
2023-02-18T03:37:46.446Z,22.1
2023-02-18T03:38:48.939Z,22
2023-02-18T03:39:51.157Z,22.2
2023-02-18T03:40:53.385Z,22.2
2023-02-18T03:41:55.653Z,22.1
2023-02-18T03:42:58.164Z,22
2023-02-18T03:44:00.693Z,22.1
2023-02-18T03:45:02.909Z,22
2023-02-18T03:46:05.227Z,22.2
2023-02-18T03:47:10.061Z,22.1
2023-02-18T03:48:12.564Z,22
2023-02-18T03:49:15.072Z,22.2
2023-02-18T03:50:17.658Z,22.1
2023-02-18T03:51:20.190Z,21.9
2023-02-18T03:52:22.672Z,22.1
2023-02-18T03:53:25.304Z,22
2023-02-18T03:54:27.510Z,22
2023-02-18T03:55:29.723Z,22.1
2023-02-18T03:56:31.970Z,22.1
2023-02-18T03:57:34.554Z,22.1
2023-02-18T03:58:37.032Z,22
2023-02-18T03:59:39.530Z,22.1
2023-02-18T04:00:42.047Z,22.3
2023-02-18T04:01:44.275Z,22.1
2023-02-18T04:02:46.795Z,22.2
2023-02-18T04:03:49.281Z,22.2
2023-02-18T04:04:51.494Z,22.1
2023-02-18T04:05:54.007Z,22.1
2023-02-18T04:06:56.212Z,22.3
2023-02-18T04:07:58.719Z,22
2023-02-18T04:09:01.317Z,22.2
2023-02-18T04:10:03.518Z,22.2
2023-02-18T04:11:05.740Z,22.1
2023-02-18T04:12:08.242Z,22.1
2023-02-18T04:13:10.471Z,22
2023-02-18T04:14:12.467Z,22
2023-02-18T04:15:14.951Z,22.1
2023-02-18T04:16:17.496Z,21.9
2023-02-18T04:17:20.155Z,22
2023-02-18T04:18:22.407Z,22.1
2023-02-18T04:19:24.638Z,22
2023-02-18T04:20:26.872Z,22.2
2023-02-18T04:21:29.380Z,21.9
2023-02-18T04:22:31.905Z,22.1
2023-02-18T04:23:34.415Z,22.1
2023-02-18T04:24:37.011Z,22.1
2023-02-18T04:25:39.235Z,22
2023-02-18T04:26:41.754Z,22
2023-02-18T04:27:44.251Z,22
2023-02-18T04:28:47.593Z,21.9
2023-02-18T04:29:50.121Z,22
2023-02-18T04:30:52.658Z,21.9
2023-02-18T04:31:55.222Z,21.9
2023-02-18T04:32:57.876Z,22
2023-02-18T04:33:59.808Z,21.9
2023-02-18T04:35:02.026Z,22
2023-02-18T04:36:04.254Z,21.8
2023-02-18T04:37:06.856Z,22
2023-02-18T04:38:08.978Z,21.8
2023-02-18T04:39:11.221Z,22
2023-02-18T04:40:13.830Z,21.9
2023-02-18T04:41:16.323Z,21.8
2023-02-18T04:42:18.810Z,21.9
2023-02-18T04:43:21.299Z,21.8
2023-02-18T04:44:23.501Z,21.8
2023-02-18T04:45:25.768Z,22
2023-02-18T04:46:28.290Z,21.8
2023-02-18T04:47:31.066Z,21.9
2023-02-18T04:48:33.732Z,21.9
2023-02-18T04:49:36.021Z,21.9
2023-02-18T04:50:38.250Z,21.8
2023-02-18T04:51:40.823Z,21.9
2023-02-18T04:52:43.413Z,21.6
2023-02-18T04:53:45.989Z,21.8
2023-02-18T04:54:48.490Z,21.9
2023-02-18T04:55:51.109Z,21.7
2023-02-18T04:56:53.665Z,21.6
2023-02-18T04:57:56.183Z,21.9
2023-02-18T04:58:58.875Z,21.7
2023-02-18T05:00:01.117Z,22
2023-02-18T05:01:03.726Z,21.9
2023-02-18T05:02:06.155Z,21.9
2023-02-18T05:03:08.385Z,21.9
2023-02-18T05:04:10.793Z,21.9
2023-02-18T05:05:13.667Z,21.8
2023-02-18T05:06:16.228Z,21.9
2023-02-18T05:07:18.762Z,21.7
2023-02-18T05:08:21.000Z,21.6
2023-02-18T05:09:23.269Z,21.8
2023-02-18T05:10:25.788Z,21.8
2023-02-18T05:11:28.434Z,22
2023-02-18T05:12:30.677Z,21.7
2023-02-18T05:13:33.188Z,21.8
2023-02-18T05:14:35.686Z,22
2023-02-18T05:15:37.652Z,21.6
2023-02-18T05:16:40.065Z,21.6
2023-02-18T05:17:42.294Z,21.6
2023-02-18T05:18:44.553Z,21.8
2023-02-18T05:19:46.779Z,21.8
2023-02-18T05:20:49.266Z,21.5
2023-02-18T05:21:51.501Z,21.8
2023-02-18T05:22:54.055Z,21.7
2023-02-18T05:23:56.571Z,21.8
2023-02-18T05:24:58.846Z,22
2023-02-18T05:26:01.382Z,21.7
2023-02-18T05:27:03.991Z,21.8
2023-02-18T05:28:06.503Z,21.6
2023-02-18T05:29:08.708Z,21.8
2023-02-18T05:30:11.237Z,21.9
2023-02-18T05:31:14.047Z,21.8
2023-02-18T05:32:17.027Z,21.6
2023-02-18T05:33:19.529Z,21.8
2023-02-18T05:34:22.031Z,21.6
2023-02-18T05:35:24.251Z,21.6
2023-02-18T05:36:26.753Z,21.6
2023-02-18T05:37:28.679Z,21.9
2023-02-18T05:38:31.162Z,21.8
2023-02-18T05:39:33.394Z,21.8
2023-02-18T05:40:35.608Z,21.9
2023-02-18T05:41:37.845Z,21.8
2023-02-18T05:42:40.466Z,21.8
2023-02-18T05:43:42.682Z,21.8
2023-02-18T05:44:45.192Z,21.7
2023-02-18T05:45:47.401Z,21.8
2023-02-18T05:46:49.907Z,21.7
2023-02-18T05:47:52.382Z,21.8
2023-02-18T05:48:54.604Z,21.7
2023-02-18T05:49:57.132Z,21.7
2023-02-18T05:50:59.353Z,21.8
2023-02-18T05:52:01.848Z,21.5
2023-02-18T05:53:04.072Z,21.6
2023-02-18T05:54:06.594Z,21.8
2023-02-18T05:55:09.161Z,21.7
2023-02-18T05:56:11.649Z,21.6
2023-02-18T05:57:13.876Z,21.7
2023-02-18T05:58:16.511Z,21.5
2023-02-18T05:59:18.736Z,21.4
2023-02-18T06:00:21.240Z,21.5
2023-02-18T06:01:23.467Z,21.6
2023-02-18T06:02:25.992Z,21.9
2023-02-18T06:03:28.353Z,21.6
2023-02-18T06:04:30.845Z,21.8
2023-02-18T06:05:32.802Z,21.6
2023-02-18T06:06:35.510Z,21.6
2023-02-18T06:07:37.731Z,21.7
2023-02-18T06:08:40.237Z,21.4
2023-02-18T06:09:42.726Z,21.6
2023-02-18T06:10:45.267Z,21.7
2023-02-18T06:11:47.876Z,21.5
2023-02-18T06:12:50.391Z,21.6
2023-02-18T06:13:52.971Z,21.4
2023-02-18T06:14:55.494Z,21.5
2023-02-18T06:15:58.014Z,21.6
2023-02-18T06:17:00.735Z,21.5
2023-02-18T06:18:02.931Z,21.7
2023-02-18T06:19:05.423Z,21.8
2023-02-18T06:20:07.926Z,21.5
2023-02-18T06:21:10.150Z,21.8
2023-02-18T06:22:12.496Z,21.6
2023-02-18T06:23:14.987Z,21.6
2023-02-18T06:24:17.471Z,21.8
2023-02-18T06:25:19.674Z,21.7
2023-02-18T06:26:21.908Z,21.6
2023-02-18T06:27:23.869Z,21.8
2023-02-18T06:28:26.384Z,21.7
2023-02-18T06:29:28.969Z,21.7
2023-02-18T06:30:31.269Z,21.4
2023-02-18T06:31:33.908Z,21.4
2023-02-18T06:32:36.560Z,21.6
2023-02-18T06:33:39.094Z,21.6
2023-02-18T06:34:41.614Z,21.6
2023-02-18T06:35:44.108Z,21.7
2023-02-18T06:36:46.595Z,21.5
2023-02-18T06:37:49.107Z,21.4
2023-02-18T06:38:51.596Z,21.7
2023-02-18T06:39:54.091Z,21.5
2023-02-18T06:40:56.585Z,21.5
2023-02-18T06:41:59.179Z,21.6
2023-02-18T06:43:01.581Z,21.6
2023-02-18T06:44:04.077Z,21.6
2023-02-18T06:45:06.771Z,21.7
2023-02-18T06:46:09.732Z,21.4
2023-02-18T06:47:13.359Z,21.6
2023-02-18T06:48:15.862Z,21.7
2023-02-18T06:49:18.198Z,21.9
2023-02-18T06:50:20.703Z,21.9
2023-02-18T06:51:23.215Z,21.5
2023-02-18T06:52:25.724Z,21.5
2023-02-18T06:53:27.996Z,21.7
2023-02-18T06:54:30.218Z,21.8
2023-02-18T06:55:32.709Z,21.7
2023-02-18T06:56:34.635Z,21.4
2023-02-18T06:57:36.625Z,21.5
2023-02-18T06:58:39.131Z,21.8
2023-02-18T06:59:41.653Z,21.5
2023-02-18T07:00:44.016Z,21.7
2023-02-18T07:01:46.574Z,21.6
2023-02-18T07:02:49.372Z,21.6
2023-02-18T07:03:51.900Z,21.6
2023-02-18T07:04:54.357Z,21.8
2023-02-18T07:05:56.889Z,21.6
2023-02-18T07:06:59.402Z,21.5
2023-02-18T07:08:01.908Z,21.5
2023-02-18T07:09:04.152Z,21.6
2023-02-18T07:10:06.388Z,21.5
2023-02-18T07:11:08.913Z,21.7
2023-02-18T07:12:11.656Z,21.5
2023-02-18T07:13:14.216Z,21.7
2023-02-18T07:14:16.736Z,21.7
2023-02-18T07:15:19.236Z,21.5
2023-02-18T07:16:21.870Z,21.5
2023-02-18T07:17:24.403Z,21.8
2023-02-18T07:18:26.895Z,21.7
2023-02-18T07:19:29.404Z,21.7
2023-02-18T07:20:31.944Z,21.7
2023-02-18T07:21:34.490Z,21.6
2023-02-18T07:22:37.009Z,21.6
2023-02-18T07:23:39.543Z,21.5
2023-02-18T07:24:41.783Z,21.5
2023-02-18T07:25:44.290Z,21.8
2023-02-18T07:26:46.512Z,21.6
2023-02-18T07:27:49.006Z,21.6
2023-02-18T07:28:51.542Z,21.6
2023-02-18T07:29:54.098Z,21.8
2023-02-18T07:30:56.631Z,21.5
2023-02-18T07:31:59.287Z,21.4
2023-02-18T07:33:03.968Z,21.5
2023-02-18T07:34:06.290Z,21.6
2023-02-18T07:35:08.529Z,21.6
2023-02-18T07:36:11.204Z,21.3
2023-02-18T07:37:13.750Z,21.4
2023-02-18T07:38:15.973Z,21.5
2023-02-18T07:39:18.470Z,21.5
2023-02-18T07:40:20.694Z,21.7
2023-02-18T07:41:22.939Z,21.6
2023-02-18T07:42:25.188Z,21.6
2023-02-18T07:43:27.438Z,21.5
2023-02-18T07:44:30.191Z,21.7
2023-02-18T07:45:32.472Z,21.6
2023-02-18T07:46:34.942Z,21.7
2023-02-18T07:47:37.593Z,21.5
2023-02-18T07:48:39.821Z,21.7
2023-02-18T07:49:42.337Z,21.5
2023-02-18T07:50:44.862Z,21.5
2023-02-18T07:51:47.391Z,21.4
2023-02-18T07:52:49.886Z,21.5
2023-02-18T07:53:52.381Z,21.5
2023-02-18T07:54:54.621Z,21.6
2023-02-18T07:55:56.877Z,21.6
2023-02-18T07:56:59.141Z,21.7
2023-02-18T07:58:01.663Z,21.6
2023-02-18T07:59:04.166Z,21.6
2023-02-18T08:00:06.700Z,21.6
2023-02-18T08:01:09.210Z,21.5
2023-02-18T08:02:11.429Z,21.5
2023-02-18T08:03:13.989Z,21.4
2023-02-18T08:04:16.548Z,21.3
2023-02-18T08:05:19.145Z,21.4
2023-02-18T08:06:21.681Z,21.5
2023-02-18T08:07:24.181Z,21.5
2023-02-18T08:08:26.705Z,21.6
2023-02-18T08:09:28.940Z,21.5
2023-02-18T08:10:30.900Z,21.8
2023-02-18T08:11:33.435Z,21.4
2023-02-18T08:12:36.013Z,21.4
2023-02-18T08:13:38.260Z,21.5
2023-02-18T08:14:40.506Z,21.6
2023-02-18T08:15:43.085Z,21.7
2023-02-18T08:16:45.590Z,21.4
2023-02-18T08:17:48.392Z,21.8
2023-02-18T08:18:50.713Z,21.5
2023-02-18T08:19:52.940Z,21.7
2023-02-18T08:20:55.426Z,21.6
2023-02-18T08:21:57.662Z,21.5
2023-02-18T08:23:00.170Z,21.6
2023-02-18T08:24:02.444Z,21.3
2023-02-18T08:25:04.698Z,21.3
2023-02-18T08:26:07.200Z,21.5
2023-02-18T08:27:11.038Z,21.3
2023-02-18T08:28:13.565Z,21.4
2023-02-18T08:29:16.064Z,21.4
2023-02-18T08:30:18.647Z,21.5
2023-02-18T08:31:21.096Z,21.3
2023-02-18T08:32:24.475Z,21.5
2023-02-18T08:33:26.699Z,21.7
2023-02-18T08:34:29.314Z,21.6
2023-02-18T08:35:31.552Z,21.4
2023-02-18T08:36:34.053Z,21.7
2023-02-18T08:37:51.932Z,21.7
2023-02-18T08:38:41.253Z,21.6
2023-02-18T08:39:43.745Z,21.9
2023-02-18T08:40:46.229Z,21.7
2023-02-18T08:41:48.231Z,21.7
2023-02-18T08:42:50.749Z,21.4
2023-02-18T08:43:52.713Z,21.4
2023-02-18T08:46:15.742Z,21.8
2023-02-18T08:48:16.449Z,21.6
2023-02-18T08:48:41.603Z,21.5
2023-02-18T08:49:43.977Z,21.6
2023-02-18T08:50:45.938Z,21.7
2023-02-18T08:51:48.534Z,21.4
2023-02-18T08:52:51.095Z,21.5
2023-02-18T08:53:53.595Z,21.4
2023-02-18T08:54:56.126Z,21.5
2023-02-18T08:55:58.063Z,21.6
2023-02-18T08:57:00.301Z,21.5
2023-02-18T08:58:02.825Z,21.6
2023-02-18T08:59:05.335Z,21.5
2023-02-18T09:00:07.841Z,21.2
2023-02-18T09:01:10.492Z,21.5
2023-02-18T09:02:13.750Z,21.5
2023-02-18T09:03:15.743Z,21.7
2023-02-18T09:04:18.287Z,21.6
2023-02-18T09:05:21.091Z,21.7
2023-02-18T09:06:23.599Z,21.6
2023-02-18T09:07:26.103Z,21.5
2023-02-18T09:08:28.324Z,21.4
2023-02-18T09:09:30.829Z,21.4
2023-02-18T09:10:32.790Z,21.8
2023-02-18T09:11:35.337Z,21.3
2023-02-18T09:12:37.843Z,21.6
2023-02-18T09:13:40.353Z,21.3
2023-02-18T09:14:42.697Z,21.7
2023-02-18T09:15:45.259Z,21.5
2023-02-18T09:16:47.613Z,21.5
2023-02-18T09:17:50.127Z,21.5
2023-02-18T09:18:52.822Z,21.6
2023-02-18T09:19:55.087Z,21.6
2023-02-18T09:20:57.661Z,21.4
2023-02-18T09:22:00.807Z,21.6
2023-02-18T09:23:03.750Z,21.3
2023-02-18T09:24:05.489Z,21.5
2023-02-18T09:25:07.476Z,21.4
2023-02-18T09:26:09.681Z,21.4
2023-02-18T09:27:11.933Z,21.4
2023-02-18T09:28:14.163Z,21.5
2023-02-18T09:29:16.668Z,21.7
2023-02-18T09:30:19.245Z,21.7
2023-02-18T09:31:21.994Z,21.8
2023-02-18T09:32:34.185Z,21.6
2023-02-18T09:33:29.849Z,21.5
2023-02-18T09:34:32.101Z,21.5
2023-02-18T09:35:34.608Z,21.5
2023-02-18T09:36:37.400Z,21.7
2023-02-18T09:37:39.951Z,21.7
2023-02-18T09:38:42.457Z,21.4
2023-02-18T09:39:44.657Z,21.5
2023-02-18T09:40:47.207Z,21.5
2023-02-18T09:41:49.720Z,21.5
2023-02-18T09:42:52.244Z,21.6
2023-02-18T09:43:54.765Z,21.6
2023-02-18T09:44:56.981Z,21.6
2023-02-18T09:45:59.252Z,21.5
2023-02-18T09:47:02.123Z,21.4
2023-02-18T09:48:04.647Z,21.5
2023-02-18T09:49:06.877Z,21.3
2023-02-18T09:50:09.408Z,21.7
2023-02-18T09:51:11.902Z,21.5
2023-02-18T09:52:14.525Z,21.7
2023-02-18T09:53:17.028Z,21.4
2023-02-18T09:54:19.542Z,21.7
2023-02-18T09:55:21.776Z,21.6
2023-02-18T09:56:24.017Z,21.7
2023-02-18T09:57:26.519Z,21.3
2023-02-18T09:58:29.068Z,21.7
2023-02-18T09:59:31.267Z,21.5
2023-02-18T10:00:33.776Z,21.6
2023-02-18T10:01:36.316Z,21.5
2023-02-18T10:02:39.428Z,21.5
2023-02-18T10:03:41.679Z,21.5
2023-02-18T10:04:43.898Z,21.6
2023-02-18T10:05:46.158Z,21.7
2023-02-18T10:06:48.451Z,21.3
2023-02-18T10:07:51.075Z,21.4
2023-02-18T10:08:53.628Z,21.5
2023-02-18T10:09:55.914Z,21.7
2023-02-18T10:10:58.467Z,21.5
2023-02-18T10:12:00.474Z,21.4
2023-02-18T10:13:02.699Z,21.7
2023-02-18T10:14:04.976Z,21.8
2023-02-18T10:15:07.494Z,21.6
2023-02-18T10:16:10.312Z,21.6
2023-02-18T10:17:14.498Z,21.5
2023-02-18T10:18:16.788Z,21.5
2023-02-18T10:19:19.044Z,21.8
2023-02-18T10:20:21.598Z,21.5
2023-02-18T10:21:23.826Z,21.6
2023-02-18T10:22:26.356Z,21.6
2023-02-18T10:23:29.013Z,21.5
2023-02-18T10:24:31.224Z,21.8
2023-02-18T10:25:33.719Z,21.6
2023-02-18T10:26:36.219Z,21.5
2023-02-18T10:27:38.747Z,21.5
2023-02-18T10:28:41.270Z,21.6
2023-02-18T10:29:43.759Z,21.7
2023-02-18T10:30:46.309Z,21.6
2023-02-18T10:31:48.807Z,21.7
2023-02-18T10:32:51.709Z,21.8
2023-02-18T10:33:53.975Z,21.6
2023-02-18T10:34:57.788Z,21.6
2023-02-18T10:36:01.486Z,21.7
2023-02-18T10:37:04.010Z,21.5
2023-02-18T10:38:06.224Z,21.6
2023-02-18T10:39:08.938Z,21.5
2023-02-18T10:40:10.896Z,21.7
2023-02-18T10:41:13.455Z,21.5
2023-02-18T10:42:15.702Z,21.6
2023-02-18T10:43:17.690Z,21.5
2023-02-18T10:44:20.214Z,21.5
2023-02-18T10:45:22.713Z,21.7
2023-02-18T10:46:24.710Z,21.4
2023-02-18T10:47:26.824Z,21.6
2023-02-18T10:48:29.343Z,21.4
2023-02-18T10:49:31.848Z,21.8
2023-02-18T10:50:34.398Z,21.6
2023-02-18T10:51:36.891Z,21.6
2023-02-18T10:52:39.232Z,21.9
2023-02-18T10:53:41.736Z,21.9
2023-02-18T10:54:44.359Z,21.8
2023-02-18T10:55:46.578Z,21.7
2023-02-18T10:56:49.087Z,21.6
2023-02-18T10:57:51.636Z,21.6
2023-02-18T10:58:53.872Z,21.7
2023-02-18T10:59:56.096Z,21.7
2023-02-18T11:00:58.605Z,21.8
2023-02-18T11:02:00.870Z,21.7
2023-02-18T11:03:03.442Z,21.6
2023-02-18T11:04:10.398Z,21.9
2023-02-18T11:05:12.328Z,21.7
2023-02-18T11:06:14.840Z,21.5
2023-02-18T11:07:17.060Z,21.6
2023-02-18T11:08:19.332Z,21.6
2023-02-18T11:09:21.847Z,21.3
2023-02-18T11:10:24.430Z,21.8
2023-02-18T11:11:27.202Z,21.6
2023-02-18T11:12:29.693Z,21.7
2023-02-18T11:13:31.944Z,21.4
2023-02-18T11:14:34.448Z,21.4
2023-02-18T11:15:36.947Z,21.6
2023-02-18T11:16:39.182Z,21.7
2023-02-18T11:17:41.412Z,21.5
2023-02-18T11:18:43.932Z,21.3
2023-02-18T11:19:46.142Z,21.5
2023-02-18T11:20:48.377Z,21.6
2023-02-18T11:21:50.894Z,21.6
2023-02-18T11:22:52.840Z,21.8
2023-02-18T11:23:55.362Z,21.7
2023-02-18T11:24:57.291Z,21.7
2023-02-18T11:25:59.976Z,21.8
2023-02-18T11:27:02.616Z,21.8
2023-02-18T11:28:04.880Z,21.8
2023-02-18T11:29:07.397Z,21.5
2023-02-18T11:30:09.650Z,21.8
2023-02-18T11:31:12.406Z,21.6
2023-02-18T11:32:15.760Z,21.8
2023-02-18T11:33:17.952Z,21.6
2023-02-18T11:34:20.193Z,21.8
2023-02-18T11:35:22.734Z,21.8
2023-02-18T11:36:24.983Z,21.6
2023-02-18T11:37:27.535Z,21.7
2023-02-18T11:38:30.061Z,21.7
2023-02-18T11:39:32.683Z,21.6
2023-02-18T11:40:34.903Z,21.6
2023-02-18T11:41:37.266Z,21.7
2023-02-18T11:42:39.774Z,21.6
2023-02-18T11:43:42.302Z,21.7
2023-02-18T11:44:44.505Z,21.9
2023-02-18T11:45:47.017Z,21.8
2023-02-18T11:46:49.520Z,21.7
2023-02-18T11:47:52.306Z,21.7
2023-02-18T11:48:54.531Z,21.5
2023-02-18T11:49:56.199Z,21.6
2023-02-18T11:50:58.424Z,21.7
2023-02-18T11:52:00.631Z,21.7
2023-02-18T11:53:02.560Z,21.8
2023-02-18T11:54:04.824Z,21.5
2023-02-18T11:55:07.382Z,21.6
2023-02-18T11:56:09.884Z,21.6
2023-02-18T11:57:12.482Z,22
2023-02-18T11:58:14.722Z,21.5
2023-02-18T11:59:17.207Z,21.7
2023-02-18T12:00:19.180Z,21.7
2023-02-18T12:01:21.411Z,21.8
2023-02-18T12:02:23.931Z,21.8
2023-02-18T12:03:26.427Z,21.7
2023-02-18T12:04:28.992Z,21.8
2023-02-18T12:05:31.494Z,21.6
2023-02-18T12:06:33.992Z,21.6
2023-02-18T12:07:36.228Z,21.7
2023-02-18T12:08:38.726Z,21.7
2023-02-18T12:09:41.617Z,21.8
2023-02-18T12:10:44.150Z,21.5
2023-02-18T12:11:46.643Z,21.8
2023-02-18T12:12:49.234Z,21.8
2023-02-18T12:13:51.488Z,21.7
2023-02-18T12:14:53.990Z,21.8
2023-02-18T12:15:56.812Z,21.7
2023-02-18T12:17:00.180Z,21.7
2023-02-18T12:18:03.186Z,21.9
2023-02-18T12:19:05.707Z,21.6
2023-02-18T12:20:08.228Z,21.4
2023-02-18T12:21:10.683Z,22
2023-02-18T12:22:13.040Z,21.8
2023-02-18T12:23:15.539Z,21.7
2023-02-18T12:24:18.058Z,22
2023-02-18T12:25:20.567Z,21.8
2023-02-18T12:26:22.559Z,21.7
2023-02-18T12:27:24.840Z,21.8
2023-02-18T12:28:27.488Z,21.6
2023-02-18T12:29:29.736Z,21.6
2023-02-18T12:30:32.339Z,21.8
2023-02-18T12:31:35.249Z,21.7
2023-02-18T12:32:37.981Z,21.6
2023-02-18T12:33:40.501Z,21.6
2023-02-18T12:34:43.048Z,21.7
2023-02-18T12:35:45.579Z,21.7
2023-02-18T12:36:48.168Z,21.7
2023-02-18T12:37:50.419Z,21.8
2023-02-18T12:38:52.645Z,21.6
2023-02-18T12:39:55.178Z,21.7
2023-02-18T12:40:57.687Z,21.9
2023-02-18T12:42:00.221Z,21.7
2023-02-18T12:43:02.754Z,21.6
2023-02-18T12:44:05.489Z,21.9
2023-02-18T12:45:07.741Z,21.7
2023-02-18T12:46:10.330Z,21.9
2023-02-18T12:47:12.837Z,21.7
2023-02-18T12:48:15.396Z,21.9
2023-02-18T12:49:17.345Z,21.7
2023-02-18T12:50:19.854Z,21.8
2023-02-18T12:51:22.229Z,21.8
2023-02-18T12:52:24.435Z,21.7
2023-02-18T12:53:26.950Z,21.5
2023-02-18T12:54:29.166Z,21.9
2023-02-18T12:55:31.385Z,21.8
2023-02-18T12:56:33.637Z,21.7
2023-02-18T12:57:36.166Z,21.8
2023-02-18T12:58:38.698Z,21.7
2023-02-18T12:59:41.351Z,21.6
2023-02-18T13:00:43.597Z,21.6
2023-02-18T13:01:45.813Z,21.6
2023-02-18T13:02:47.832Z,21.6
2023-02-18T13:03:50.209Z,21.8
2023-02-18T13:04:52.449Z,21.6
2023-02-18T13:05:54.938Z,21.7
2023-02-18T13:06:57.467Z,21.5
2023-02-18T13:07:59.973Z,21.8
2023-02-18T13:09:02.313Z,21.9
2023-02-18T13:10:04.823Z,21.8
2023-02-18T13:11:06.744Z,21.5
2023-02-18T13:12:09.235Z,21.8
2023-02-18T13:13:11.762Z,21.7
2023-02-18T13:14:14.287Z,21.7
2023-02-18T13:15:16.886Z,21.9
2023-02-18T13:16:19.190Z,21.7
2023-02-18T13:17:21.968Z,21.8
2023-02-18T13:18:24.199Z,21.8
2023-02-18T13:19:26.715Z,21.9
2023-02-18T13:20:29.222Z,21.7
2023-02-18T13:21:31.719Z,21.8
2023-02-18T13:22:34.234Z,21.7
2023-02-18T13:23:36.745Z,21.8
2023-02-18T13:24:39.260Z,21.6
2023-02-18T13:25:41.199Z,22
2023-02-18T13:26:43.695Z,21.8
2023-02-18T13:27:45.910Z,21.8
2023-02-18T13:28:48.230Z,21.7
2023-02-18T13:29:50.744Z,21.8
2023-02-18T13:30:53.382Z,21.8
2023-02-18T13:31:56.044Z,21.7
2023-02-18T13:32:58.844Z,21.8
2023-02-18T13:34:01.367Z,21.8
2023-02-18T13:35:03.365Z,22.1
2023-02-18T13:36:05.060Z,21.7
2023-02-18T13:37:07.589Z,21.6
2023-02-18T13:38:10.084Z,21.8
2023-02-18T13:39:12.639Z,21.6
2023-02-18T13:40:15.209Z,21.7
2023-02-18T13:41:17.739Z,21.6
2023-02-18T13:42:20.304Z,21.5
2023-02-18T13:43:22.805Z,21.6
2023-02-18T13:44:25.335Z,21.6
2023-02-18T13:45:27.563Z,21.8
2023-02-18T13:46:30.234Z,21.6
2023-02-18T13:47:32.813Z,21.7
2023-02-18T13:48:35.045Z,21.9
2023-02-18T13:49:37.557Z,21.8
2023-02-18T13:50:40.072Z,21.9
2023-02-18T13:51:42.093Z,21.9
2023-02-18T13:52:44.595Z,21.8
2023-02-18T13:53:46.805Z,21.7
2023-02-18T13:54:51.007Z,21.7
2023-02-18T13:55:54.005Z,21.7
2023-02-18T13:56:56.493Z,21.8